<?xml version="1.0" encoding="UTF-8" standalone="no" ?>
<gpx xmlns="http://www.topografix.com/GPX/1/1" xmlns:xsi="http://www.w3.org/2001/XMLSchema-instance" xsi:schemaLocation="http://www.topografix.com/GPX/1/1 http://www.topografix.com/GPX/1/1/gpx.xsd" version="1.1" creator="VisuGPX - https://www.visugpx.com">
  <metadata>
    <name>OSTICHES Enéo 18 juillet</name>
    <desc><![CDATA[GUIDE: Christian  .ENEO MESLIN L'EVEQUE
]]></desc>
  </metadata>
  <trk>
    <name><![CDATA[OSTICHES18 19:03:04]]></name>
    <trkseg>
      <trkpt lat="50.67848" lon="3.7589">
        <ele>44.84</ele>
        <time>2016-07-18T15:03:29Z</time>
      </trkpt>
      <trkpt lat="50.67847" lon="3.7589">
        <ele>44.84</ele>
        <time>2016-07-18T15:03:30Z</time>
      </trkpt>
      <trkpt lat="50.67848" lon="3.75891">
        <ele>44.36</ele>
        <time>2016-07-18T15:03:50Z</time>
      </trkpt>
      <trkpt lat="50.67847" lon="3.75891">
        <ele>43.88</ele>
        <time>2016-07-18T15:04:17Z</time>
      </trkpt>
      <trkpt lat="50.67838" lon="3.7588">
        <ele>43.88</ele>
        <time>2016-07-18T15:04:32Z</time>
      </trkpt>
      <trkpt lat="50.67827" lon="3.75856">
        <ele>45.8</ele>
        <time>2016-07-18T15:04:51Z</time>
      </trkpt>
      <trkpt lat="50.67818" lon="3.75848">
        <ele>45.8</ele>
        <time>2016-07-18T15:05:01Z</time>
      </trkpt>
      <trkpt lat="50.67793" lon="3.75823">
        <ele>47.24</ele>
        <time>2016-07-18T15:05:26Z</time>
      </trkpt>
      <trkpt lat="50.6778" lon="3.75806">
        <ele>47.24</ele>
        <time>2016-07-18T15:05:43Z</time>
      </trkpt>
      <trkpt lat="50.67752" lon="3.75785">
        <ele>47.24</ele>
        <time>2016-07-18T15:06:09Z</time>
      </trkpt>
      <trkpt lat="50.6772" lon="3.75767">
        <ele>47.72</ele>
        <time>2016-07-18T15:06:39Z</time>
      </trkpt>
      <trkpt lat="50.67718" lon="3.75765">
        <ele>46.76</ele>
        <time>2016-07-18T15:06:41Z</time>
      </trkpt>
      <trkpt lat="50.67694" lon="3.75752">
        <ele>46.76</ele>
        <time>2016-07-18T15:07:03Z</time>
      </trkpt>
      <trkpt lat="50.67675" lon="3.75736">
        <ele>46.76</ele>
        <time>2016-07-18T15:07:22Z</time>
      </trkpt>
      <trkpt lat="50.67667" lon="3.75719">
        <ele>47.72</ele>
        <time>2016-07-18T15:07:38Z</time>
      </trkpt>
      <trkpt lat="50.67642" lon="3.75683">
        <ele>48.2</ele>
        <time>2016-07-18T15:08:02Z</time>
      </trkpt>
      <trkpt lat="50.67624" lon="3.7565">
        <ele>48.68</ele>
        <time>2016-07-18T15:08:25Z</time>
      </trkpt>
      <trkpt lat="50.67603" lon="3.75615">
        <ele>48.68</ele>
        <time>2016-07-18T15:08:49Z</time>
      </trkpt>
      <trkpt lat="50.67589" lon="3.75621">
        <ele>47.24</ele>
        <time>2016-07-18T15:09:05Z</time>
      </trkpt>
      <trkpt lat="50.67575" lon="3.75608">
        <ele>46.76</ele>
        <time>2016-07-18T15:09:22Z</time>
      </trkpt>
      <trkpt lat="50.67568" lon="3.75585">
        <ele>47.72</ele>
        <time>2016-07-18T15:09:34Z</time>
      </trkpt>
      <trkpt lat="50.67549" lon="3.75547">
        <ele>47.72</ele>
        <time>2016-07-18T15:09:58Z</time>
      </trkpt>
      <trkpt lat="50.67537" lon="3.75505">
        <ele>48.2</ele>
        <time>2016-07-18T15:10:19Z</time>
      </trkpt>
      <trkpt lat="50.67554" lon="3.7547">
        <ele>49.16</ele>
        <time>2016-07-18T15:10:41Z</time>
      </trkpt>
      <trkpt lat="50.67569" lon="3.75426">
        <ele>50.13</ele>
        <time>2016-07-18T15:11:04Z</time>
      </trkpt>
      <trkpt lat="50.67573" lon="3.75388">
        <ele>50.61</ele>
        <time>2016-07-18T15:11:27Z</time>
      </trkpt>
      <trkpt lat="50.67575" lon="3.75369">
        <ele>50.61</ele>
        <time>2016-07-18T15:11:36Z</time>
      </trkpt>
      <trkpt lat="50.67576" lon="3.75326">
        <ele>49.16</ele>
        <time>2016-07-18T15:11:57Z</time>
      </trkpt>
      <trkpt lat="50.6757" lon="3.75273">
        <ele>48.68</ele>
        <time>2016-07-18T15:12:25Z</time>
      </trkpt>
      <trkpt lat="50.67569" lon="3.75269">
        <ele>47.24</ele>
        <time>2016-07-18T15:12:27Z</time>
      </trkpt>
      <trkpt lat="50.67568" lon="3.7525">
        <ele>46.76</ele>
        <time>2016-07-18T15:12:36Z</time>
      </trkpt>
      <trkpt lat="50.67565" lon="3.75213">
        <ele>46.28</ele>
        <time>2016-07-18T15:12:57Z</time>
      </trkpt>
      <trkpt lat="50.6755" lon="3.75159">
        <ele>45.8</ele>
        <time>2016-07-18T15:13:25Z</time>
      </trkpt>
      <trkpt lat="50.67535" lon="3.75107">
        <ele>44.84</ele>
        <time>2016-07-18T15:13:53Z</time>
      </trkpt>
      <trkpt lat="50.67522" lon="3.75058">
        <ele>44.84</ele>
        <time>2016-07-18T15:14:19Z</time>
      </trkpt>
      <trkpt lat="50.67516" lon="3.7501">
        <ele>46.28</ele>
        <time>2016-07-18T15:14:43Z</time>
      </trkpt>
      <trkpt lat="50.67511" lon="3.74956">
        <ele>46.76</ele>
        <time>2016-07-18T15:15:10Z</time>
      </trkpt>
      <trkpt lat="50.67508" lon="3.74901">
        <ele>48.2</ele>
        <time>2016-07-18T15:15:38Z</time>
      </trkpt>
      <trkpt lat="50.67505" lon="3.74857">
        <ele>48.68</ele>
        <time>2016-07-18T15:16:00Z</time>
      </trkpt>
      <trkpt lat="50.67501" lon="3.74806">
        <ele>49.65</ele>
        <time>2016-07-18T15:16:25Z</time>
      </trkpt>
      <trkpt lat="50.67494" lon="3.74755">
        <ele>51.09</ele>
        <time>2016-07-18T15:16:52Z</time>
      </trkpt>
      <trkpt lat="50.67481" lon="3.7471">
        <ele>51.57</ele>
        <time>2016-07-18T15:17:17Z</time>
      </trkpt>
      <trkpt lat="50.67471" lon="3.74674">
        <ele>52.53</ele>
        <time>2016-07-18T15:17:37Z</time>
      </trkpt>
      <trkpt lat="50.67457" lon="3.74629">
        <ele>53.49</ele>
        <time>2016-07-18T15:18:03Z</time>
      </trkpt>
      <trkpt lat="50.67443" lon="3.74582">
        <ele>54.45</ele>
        <time>2016-07-18T15:18:30Z</time>
      </trkpt>
      <trkpt lat="50.67431" lon="3.74544">
        <ele>55.41</ele>
        <time>2016-07-18T15:18:52Z</time>
      </trkpt>
      <trkpt lat="50.67416" lon="3.74497">
        <ele>56.37</ele>
        <time>2016-07-18T15:19:19Z</time>
      </trkpt>
      <trkpt lat="50.67404" lon="3.74458">
        <ele>56.86</ele>
        <time>2016-07-18T15:19:42Z</time>
      </trkpt>
      <trkpt lat="50.67387" lon="3.74418">
        <ele>57.34</ele>
        <time>2016-07-18T15:20:06Z</time>
      </trkpt>
      <trkpt lat="50.6737" lon="3.74384">
        <ele>58.3</ele>
        <time>2016-07-18T15:20:28Z</time>
      </trkpt>
      <trkpt lat="50.67355" lon="3.74347">
        <ele>58.78</ele>
        <time>2016-07-18T15:20:52Z</time>
      </trkpt>
      <trkpt lat="50.67339" lon="3.74309">
        <ele>59.26</ele>
        <time>2016-07-18T15:21:15Z</time>
      </trkpt>
      <trkpt lat="50.67326" lon="3.74281">
        <ele>58.78</ele>
        <time>2016-07-18T15:21:33Z</time>
      </trkpt>
      <trkpt lat="50.67323" lon="3.74272">
        <ele>60.22</ele>
        <time>2016-07-18T15:21:39Z</time>
      </trkpt>
      <trkpt lat="50.67315" lon="3.74264">
        <ele>60.22</ele>
        <time>2016-07-18T15:21:57Z</time>
      </trkpt>
      <trkpt lat="50.67316" lon="3.74263">
        <ele>58.78</ele>
        <time>2016-07-18T15:22:13Z</time>
      </trkpt>
      <trkpt lat="50.67317" lon="3.74261">
        <ele>60.22</ele>
        <time>2016-07-18T15:22:40Z</time>
      </trkpt>
      <trkpt lat="50.6732" lon="3.7426">
        <ele>61.18</ele>
        <time>2016-07-18T15:23:12Z</time>
      </trkpt>
      <trkpt lat="50.67319" lon="3.74261">
        <ele>59.74</ele>
        <time>2016-07-18T15:23:14Z</time>
      </trkpt>
      <trkpt lat="50.6732" lon="3.74262">
        <ele>60.22</ele>
        <time>2016-07-18T15:23:18Z</time>
      </trkpt>
      <trkpt lat="50.67321" lon="3.74263">
        <ele>59.74</ele>
        <time>2016-07-18T15:23:24Z</time>
      </trkpt>
      <trkpt lat="50.67317" lon="3.74263">
        <ele>59.74</ele>
        <time>2016-07-18T15:23:50Z</time>
      </trkpt>
      <trkpt lat="50.6732" lon="3.74261">
        <ele>61.18</ele>
        <time>2016-07-18T15:24:03Z</time>
      </trkpt>
      <trkpt lat="50.67325" lon="3.74258">
        <ele>59.74</ele>
        <time>2016-07-18T15:24:10Z</time>
      </trkpt>
      <trkpt lat="50.67345" lon="3.74239">
        <ele>59.74</ele>
        <time>2016-07-18T15:24:31Z</time>
      </trkpt>
      <trkpt lat="50.67354" lon="3.74231">
        <ele>60.7</ele>
        <time>2016-07-18T15:24:40Z</time>
      </trkpt>
      <trkpt lat="50.6736" lon="3.74227">
        <ele>61.18</ele>
        <time>2016-07-18T15:24:45Z</time>
      </trkpt>
      <trkpt lat="50.67386" lon="3.74208">
        <ele>59.26</ele>
        <time>2016-07-18T15:25:10Z</time>
      </trkpt>
      <trkpt lat="50.67416" lon="3.742">
        <ele>58.3</ele>
        <time>2016-07-18T15:25:33Z</time>
      </trkpt>
      <trkpt lat="50.67425" lon="3.74172">
        <ele>57.82</ele>
        <time>2016-07-18T15:25:54Z</time>
      </trkpt>
      <trkpt lat="50.67417" lon="3.74131">
        <ele>56.86</ele>
        <time>2016-07-18T15:26:20Z</time>
      </trkpt>
      <trkpt lat="50.67403" lon="3.74089">
        <ele>55.41</ele>
        <time>2016-07-18T15:26:41Z</time>
      </trkpt>
      <trkpt lat="50.67396" lon="3.7406">
        <ele>53.49</ele>
        <time>2016-07-18T15:27:02Z</time>
      </trkpt>
      <trkpt lat="50.67386" lon="3.7402">
        <ele>50.61</ele>
        <time>2016-07-18T15:27:25Z</time>
      </trkpt>
      <trkpt lat="50.67394" lon="3.73965">
        <ele>48.68</ele>
        <time>2016-07-18T15:27:50Z</time>
      </trkpt>
      <trkpt lat="50.67407" lon="3.73912">
        <ele>47.24</ele>
        <time>2016-07-18T15:28:16Z</time>
      </trkpt>
      <trkpt lat="50.67412" lon="3.73869">
        <ele>45.8</ele>
        <time>2016-07-18T15:28:41Z</time>
      </trkpt>
      <trkpt lat="50.67402" lon="3.73856">
        <ele>45.8</ele>
        <time>2016-07-18T15:28:56Z</time>
      </trkpt>
      <trkpt lat="50.67378" lon="3.73823">
        <ele>46.76</ele>
        <time>2016-07-18T15:29:19Z</time>
      </trkpt>
      <trkpt lat="50.67351" lon="3.73794">
        <ele>49.16</ele>
        <time>2016-07-18T15:29:45Z</time>
      </trkpt>
      <trkpt lat="50.67341" lon="3.73782">
        <ele>51.09</ele>
        <time>2016-07-18T15:29:56Z</time>
      </trkpt>
      <trkpt lat="50.6733" lon="3.73765">
        <ele>51.09</ele>
        <time>2016-07-18T15:30:09Z</time>
      </trkpt>
      <trkpt lat="50.67308" lon="3.73743">
        <ele>51.57</ele>
        <time>2016-07-18T15:30:30Z</time>
      </trkpt>
      <trkpt lat="50.67285" lon="3.73715">
        <ele>51.57</ele>
        <time>2016-07-18T15:30:54Z</time>
      </trkpt>
      <trkpt lat="50.67258" lon="3.73685">
        <ele>52.05</ele>
        <time>2016-07-18T15:31:18Z</time>
      </trkpt>
      <trkpt lat="50.67232" lon="3.73667">
        <ele>50.61</ele>
        <time>2016-07-18T15:31:41Z</time>
      </trkpt>
      <trkpt lat="50.67231" lon="3.73666">
        <ele>50.61</ele>
        <time>2016-07-18T15:31:42Z</time>
      </trkpt>
      <trkpt lat="50.67229" lon="3.73665">
        <ele>52.53</ele>
        <time>2016-07-18T15:31:44Z</time>
      </trkpt>
      <trkpt lat="50.67199" lon="3.73647">
        <ele>52.53</ele>
        <time>2016-07-18T15:32:08Z</time>
      </trkpt>
      <trkpt lat="50.67168" lon="3.73634">
        <ele>53.49</ele>
        <time>2016-07-18T15:32:32Z</time>
      </trkpt>
      <trkpt lat="50.6714" lon="3.73618">
        <ele>53.97</ele>
        <time>2016-07-18T15:32:55Z</time>
      </trkpt>
      <trkpt lat="50.67111" lon="3.73604">
        <ele>54.45</ele>
        <time>2016-07-18T15:33:17Z</time>
      </trkpt>
      <trkpt lat="50.67079" lon="3.7359">
        <ele>54.45</ele>
        <time>2016-07-18T15:33:44Z</time>
      </trkpt>
      <trkpt lat="50.67051" lon="3.73576">
        <ele>53.97</ele>
        <time>2016-07-18T15:34:08Z</time>
      </trkpt>
      <trkpt lat="50.67049" lon="3.73575">
        <ele>52.53</ele>
        <time>2016-07-18T15:34:10Z</time>
      </trkpt>
      <trkpt lat="50.67037" lon="3.7357">
        <ele>52.05</ele>
        <time>2016-07-18T15:34:20Z</time>
      </trkpt>
      <trkpt lat="50.67012" lon="3.73559">
        <ele>50.61</ele>
        <time>2016-07-18T15:34:39Z</time>
      </trkpt>
      <trkpt lat="50.66989" lon="3.7352">
        <ele>49.65</ele>
        <time>2016-07-18T15:35:02Z</time>
      </trkpt>
      <trkpt lat="50.66975" lon="3.73489">
        <ele>49.16</ele>
        <time>2016-07-18T15:35:22Z</time>
      </trkpt>
      <trkpt lat="50.66963" lon="3.73458">
        <ele>49.16</ele>
        <time>2016-07-18T15:35:43Z</time>
      </trkpt>
      <trkpt lat="50.6696" lon="3.73455">
        <ele>50.61</ele>
        <time>2016-07-18T15:35:45Z</time>
      </trkpt>
      <trkpt lat="50.66943" lon="3.73417">
        <ele>51.57</ele>
        <time>2016-07-18T15:36:09Z</time>
      </trkpt>
      <trkpt lat="50.66923" lon="3.73374">
        <ele>52.05</ele>
        <time>2016-07-18T15:36:35Z</time>
      </trkpt>
      <trkpt lat="50.6691" lon="3.73349">
        <ele>52.53</ele>
        <time>2016-07-18T15:36:55Z</time>
      </trkpt>
      <trkpt lat="50.66907" lon="3.73344">
        <ele>52.53</ele>
        <time>2016-07-18T15:37:13Z</time>
      </trkpt>
      <trkpt lat="50.66908" lon="3.73346">
        <ele>52.53</ele>
        <time>2016-07-18T15:37:38Z</time>
      </trkpt>
      <trkpt lat="50.66907" lon="3.73343">
        <ele>53.01</ele>
        <time>2016-07-18T15:38:01Z</time>
      </trkpt>
      <trkpt lat="50.66902" lon="3.73342">
        <ele>51.57</ele>
        <time>2016-07-18T15:38:16Z</time>
      </trkpt>
      <trkpt lat="50.66868" lon="3.73349">
        <ele>51.57</ele>
        <time>2016-07-18T15:38:42Z</time>
      </trkpt>
      <trkpt lat="50.66861" lon="3.7335">
        <ele>53.01</ele>
        <time>2016-07-18T15:38:48Z</time>
      </trkpt>
      <trkpt lat="50.66837" lon="3.73355">
        <ele>53.97</ele>
        <time>2016-07-18T15:39:10Z</time>
      </trkpt>
      <trkpt lat="50.66808" lon="3.73362">
        <ele>53.97</ele>
        <time>2016-07-18T15:39:34Z</time>
      </trkpt>
      <trkpt lat="50.66781" lon="3.73375">
        <ele>55.41</ele>
        <time>2016-07-18T15:39:56Z</time>
      </trkpt>
      <trkpt lat="50.6678" lon="3.73378">
        <ele>55.41</ele>
        <time>2016-07-18T15:39:59Z</time>
      </trkpt>
      <trkpt lat="50.66754" lon="3.73407">
        <ele>57.34</ele>
        <time>2016-07-18T15:40:22Z</time>
      </trkpt>
      <trkpt lat="50.66748" lon="3.73437">
        <ele>58.3</ele>
        <time>2016-07-18T15:40:40Z</time>
      </trkpt>
      <trkpt lat="50.66735" lon="3.7347">
        <ele>58.3</ele>
        <time>2016-07-18T15:41:00Z</time>
      </trkpt>
      <trkpt lat="50.66718" lon="3.73488">
        <ele>59.74</ele>
        <time>2016-07-18T15:41:17Z</time>
      </trkpt>
      <trkpt lat="50.66696" lon="3.73511">
        <ele>60.22</ele>
        <time>2016-07-18T15:41:39Z</time>
      </trkpt>
      <trkpt lat="50.6668" lon="3.73525">
        <ele>58.78</ele>
        <time>2016-07-18T15:41:57Z</time>
      </trkpt>
      <trkpt lat="50.66658" lon="3.73547">
        <ele>58.3</ele>
        <time>2016-07-18T15:42:16Z</time>
      </trkpt>
      <trkpt lat="50.66631" lon="3.73569">
        <ele>57.34</ele>
        <time>2016-07-18T15:42:40Z</time>
      </trkpt>
      <trkpt lat="50.66604" lon="3.73592">
        <ele>55.41</ele>
        <time>2016-07-18T15:43:04Z</time>
      </trkpt>
      <trkpt lat="50.66578" lon="3.73613">
        <ele>54.93</ele>
        <time>2016-07-18T15:43:27Z</time>
      </trkpt>
      <trkpt lat="50.66546" lon="3.73638">
        <ele>53.49</ele>
        <time>2016-07-18T15:43:55Z</time>
      </trkpt>
      <trkpt lat="50.6652" lon="3.73659">
        <ele>53.97</ele>
        <time>2016-07-18T15:44:19Z</time>
      </trkpt>
      <trkpt lat="50.6649" lon="3.73683">
        <ele>53.01</ele>
        <time>2016-07-18T15:44:45Z</time>
      </trkpt>
      <trkpt lat="50.66482" lon="3.73688">
        <ele>51.57</ele>
        <time>2016-07-18T15:44:51Z</time>
      </trkpt>
      <trkpt lat="50.66465" lon="3.737">
        <ele>51.09</ele>
        <time>2016-07-18T15:45:08Z</time>
      </trkpt>
      <trkpt lat="50.66444" lon="3.73717">
        <ele>51.57</ele>
        <time>2016-07-18T15:45:28Z</time>
      </trkpt>
      <trkpt lat="50.66441" lon="3.7372">
        <ele>50.61</ele>
        <time>2016-07-18T15:45:31Z</time>
      </trkpt>
      <trkpt lat="50.66413" lon="3.73742">
        <ele>49.65</ele>
        <time>2016-07-18T15:45:56Z</time>
      </trkpt>
      <trkpt lat="50.66387" lon="3.73762">
        <ele>49.65</ele>
        <time>2016-07-18T15:46:19Z</time>
      </trkpt>
      <trkpt lat="50.66362" lon="3.73781">
        <ele>48.68</ele>
        <time>2016-07-18T15:46:42Z</time>
      </trkpt>
      <trkpt lat="50.66346" lon="3.73794">
        <ele>48.2</ele>
        <time>2016-07-18T15:46:57Z</time>
      </trkpt>
      <trkpt lat="50.66319" lon="3.73815">
        <ele>47.72</ele>
        <time>2016-07-18T15:47:18Z</time>
      </trkpt>
      <trkpt lat="50.66293" lon="3.7384">
        <ele>47.24</ele>
        <time>2016-07-18T15:47:41Z</time>
      </trkpt>
      <trkpt lat="50.66265" lon="3.7386">
        <ele>47.24</ele>
        <time>2016-07-18T15:48:06Z</time>
      </trkpt>
      <trkpt lat="50.66237" lon="3.73886">
        <ele>46.76</ele>
        <time>2016-07-18T15:48:31Z</time>
      </trkpt>
      <trkpt lat="50.6621" lon="3.73906">
        <ele>46.76</ele>
        <time>2016-07-18T15:48:54Z</time>
      </trkpt>
      <trkpt lat="50.66195" lon="3.73911">
        <ele>45.8</ele>
        <time>2016-07-18T15:49:08Z</time>
      </trkpt>
      <trkpt lat="50.66168" lon="3.73879">
        <ele>45.8</ele>
        <time>2016-07-18T15:49:34Z</time>
      </trkpt>
      <trkpt lat="50.66162" lon="3.73866">
        <ele>47.24</ele>
        <time>2016-07-18T15:49:42Z</time>
      </trkpt>
      <trkpt lat="50.66143" lon="3.73836">
        <ele>46.76</ele>
        <time>2016-07-18T15:50:05Z</time>
      </trkpt>
      <trkpt lat="50.6613" lon="3.73832">
        <ele>47.72</ele>
        <time>2016-07-18T15:50:17Z</time>
      </trkpt>
      <trkpt lat="50.66116" lon="3.73839">
        <ele>48.2</ele>
        <time>2016-07-18T15:50:29Z</time>
      </trkpt>
      <trkpt lat="50.66114" lon="3.7384">
        <ele>46.76</ele>
        <time>2016-07-18T15:50:31Z</time>
      </trkpt>
      <trkpt lat="50.6611" lon="3.73842">
        <ele>48.2</ele>
        <time>2016-07-18T15:50:35Z</time>
      </trkpt>
      <trkpt lat="50.66087" lon="3.73862">
        <ele>48.2</ele>
        <time>2016-07-18T15:50:56Z</time>
      </trkpt>
      <trkpt lat="50.66063" lon="3.73885">
        <ele>49.16</ele>
        <time>2016-07-18T15:51:18Z</time>
      </trkpt>
      <trkpt lat="50.66041" lon="3.73907">
        <ele>49.65</ele>
        <time>2016-07-18T15:51:40Z</time>
      </trkpt>
      <trkpt lat="50.66017" lon="3.73926">
        <ele>51.09</ele>
        <time>2016-07-18T15:52:02Z</time>
      </trkpt>
      <trkpt lat="50.65997" lon="3.73944">
        <ele>51.09</ele>
        <time>2016-07-18T15:52:22Z</time>
      </trkpt>
      <trkpt lat="50.65973" lon="3.73962">
        <ele>52.53</ele>
        <time>2016-07-18T15:52:44Z</time>
      </trkpt>
      <trkpt lat="50.65944" lon="3.73983">
        <ele>53.01</ele>
        <time>2016-07-18T15:53:10Z</time>
      </trkpt>
      <trkpt lat="50.65931" lon="3.73987">
        <ele>52.05</ele>
        <time>2016-07-18T15:53:22Z</time>
      </trkpt>
      <trkpt lat="50.65909" lon="3.73995">
        <ele>51.57</ele>
        <time>2016-07-18T15:53:41Z</time>
      </trkpt>
      <trkpt lat="50.65898" lon="3.73997">
        <ele>52.53</ele>
        <time>2016-07-18T15:53:59Z</time>
      </trkpt>
      <trkpt lat="50.6589" lon="3.74015">
        <ele>51.09</ele>
        <time>2016-07-18T15:54:18Z</time>
      </trkpt>
      <trkpt lat="50.65893" lon="3.74044">
        <ele>51.09</ele>
        <time>2016-07-18T15:54:35Z</time>
      </trkpt>
      <trkpt lat="50.659" lon="3.74072">
        <ele>52.53</ele>
        <time>2016-07-18T15:54:53Z</time>
      </trkpt>
      <trkpt lat="50.65911" lon="3.74121">
        <ele>52.53</ele>
        <time>2016-07-18T15:55:20Z</time>
      </trkpt>
      <trkpt lat="50.65914" lon="3.74138">
        <ele>51.09</ele>
        <time>2016-07-18T15:55:28Z</time>
      </trkpt>
      <trkpt lat="50.65921" lon="3.74171">
        <ele>51.09</ele>
        <time>2016-07-18T15:55:52Z</time>
      </trkpt>
      <trkpt lat="50.65919" lon="3.74181">
        <ele>51.09</ele>
        <time>2016-07-18T15:56:16Z</time>
      </trkpt>
      <trkpt lat="50.65919" lon="3.74181">
        <ele>51.09</ele>
        <time>2016-07-18T15:56:41Z</time>
      </trkpt>
      <trkpt lat="50.65913" lon="3.74184">
        <ele>50.61</ele>
        <time>2016-07-18T15:57:01Z</time>
      </trkpt>
      <trkpt lat="50.65907" lon="3.74176">
        <ele>50.13</ele>
        <time>2016-07-18T15:57:10Z</time>
      </trkpt>
      <trkpt lat="50.65911" lon="3.74181">
        <ele>51.09</ele>
        <time>2016-07-18T15:57:37Z</time>
      </trkpt>
      <trkpt lat="50.65917" lon="3.74194">
        <ele>50.61</ele>
        <time>2016-07-18T15:57:44Z</time>
      </trkpt>
      <trkpt lat="50.65931" lon="3.7425">
        <ele>49.16</ele>
        <time>2016-07-18T15:58:11Z</time>
      </trkpt>
      <trkpt lat="50.65938" lon="3.74286">
        <ele>50.13</ele>
        <time>2016-07-18T15:58:26Z</time>
      </trkpt>
      <trkpt lat="50.65945" lon="3.74317">
        <ele>48.68</ele>
        <time>2016-07-18T15:58:41Z</time>
      </trkpt>
      <trkpt lat="50.65955" lon="3.74364">
        <ele>48.2</ele>
        <time>2016-07-18T15:59:03Z</time>
      </trkpt>
      <trkpt lat="50.65971" lon="3.74382">
        <ele>47.72</ele>
        <time>2016-07-18T15:59:19Z</time>
      </trkpt>
      <trkpt lat="50.65974" lon="3.74382">
        <ele>49.16</ele>
        <time>2016-07-18T15:59:21Z</time>
      </trkpt>
      <trkpt lat="50.66001" lon="3.74373">
        <ele>48.68</ele>
        <time>2016-07-18T15:59:38Z</time>
      </trkpt>
      <trkpt lat="50.66023" lon="3.74359">
        <ele>48.68</ele>
        <time>2016-07-18T15:59:58Z</time>
      </trkpt>
      <trkpt lat="50.66048" lon="3.74346">
        <ele>48.2</ele>
        <time>2016-07-18T16:00:20Z</time>
      </trkpt>
      <trkpt lat="50.66076" lon="3.74331">
        <ele>47.24</ele>
        <time>2016-07-18T16:00:43Z</time>
      </trkpt>
      <trkpt lat="50.66093" lon="3.74348">
        <ele>46.76</ele>
        <time>2016-07-18T16:01:02Z</time>
      </trkpt>
      <trkpt lat="50.661" lon="3.74374">
        <ele>47.24</ele>
        <time>2016-07-18T16:01:16Z</time>
      </trkpt>
      <trkpt lat="50.6611" lon="3.74395">
        <ele>45.8</ele>
        <time>2016-07-18T16:01:29Z</time>
      </trkpt>
      <trkpt lat="50.66124" lon="3.74429">
        <ele>45.8</ele>
        <time>2016-07-18T16:01:50Z</time>
      </trkpt>
      <trkpt lat="50.66137" lon="3.74465">
        <ele>46.28</ele>
        <time>2016-07-18T16:02:11Z</time>
      </trkpt>
      <trkpt lat="50.6615" lon="3.7451">
        <ele>44.36</ele>
        <time>2016-07-18T16:02:37Z</time>
      </trkpt>
      <trkpt lat="50.66166" lon="3.74545">
        <ele>42.92</ele>
        <time>2016-07-18T16:03:00Z</time>
      </trkpt>
      <trkpt lat="50.66167" lon="3.74548">
        <ele>44.84</ele>
        <time>2016-07-18T16:03:02Z</time>
      </trkpt>
      <trkpt lat="50.66173" lon="3.74563">
        <ele>43.4</ele>
        <time>2016-07-18T16:03:10Z</time>
      </trkpt>
      <trkpt lat="50.66188" lon="3.74603">
        <ele>41.95</ele>
        <time>2016-07-18T16:03:34Z</time>
      </trkpt>
      <trkpt lat="50.66198" lon="3.74643">
        <ele>42.44</ele>
        <time>2016-07-18T16:03:56Z</time>
      </trkpt>
      <trkpt lat="50.66213" lon="3.7468">
        <ele>42.92</ele>
        <time>2016-07-18T16:04:19Z</time>
      </trkpt>
      <trkpt lat="50.66228" lon="3.74717">
        <ele>43.4</ele>
        <time>2016-07-18T16:04:42Z</time>
      </trkpt>
      <trkpt lat="50.66242" lon="3.74757">
        <ele>43.88</ele>
        <time>2016-07-18T16:05:06Z</time>
      </trkpt>
      <trkpt lat="50.66252" lon="3.74794">
        <ele>45.32</ele>
        <time>2016-07-18T16:05:27Z</time>
      </trkpt>
      <trkpt lat="50.66264" lon="3.74832">
        <ele>47.24</ele>
        <time>2016-07-18T16:05:49Z</time>
      </trkpt>
      <trkpt lat="50.66274" lon="3.74867">
        <ele>48.68</ele>
        <time>2016-07-18T16:06:09Z</time>
      </trkpt>
      <trkpt lat="50.66283" lon="3.74891">
        <ele>48.68</ele>
        <time>2016-07-18T16:06:24Z</time>
      </trkpt>
      <trkpt lat="50.66284" lon="3.74894">
        <ele>50.13</ele>
        <time>2016-07-18T16:06:26Z</time>
      </trkpt>
      <trkpt lat="50.66295" lon="3.74913">
        <ele>51.09</ele>
        <time>2016-07-18T16:06:39Z</time>
      </trkpt>
      <trkpt lat="50.66311" lon="3.74934">
        <ele>53.01</ele>
        <time>2016-07-18T16:06:58Z</time>
      </trkpt>
      <trkpt lat="50.66338" lon="3.74952">
        <ele>54.45</ele>
        <time>2016-07-18T16:07:20Z</time>
      </trkpt>
      <trkpt lat="50.6636" lon="3.74971">
        <ele>56.86</ele>
        <time>2016-07-18T16:07:45Z</time>
      </trkpt>
      <trkpt lat="50.66384" lon="3.74993">
        <ele>56.86</ele>
        <time>2016-07-18T16:08:07Z</time>
      </trkpt>
      <trkpt lat="50.66386" lon="3.74996">
        <ele>55.41</ele>
        <time>2016-07-18T16:08:10Z</time>
      </trkpt>
      <trkpt lat="50.66392" lon="3.75015">
        <ele>55.41</ele>
        <time>2016-07-18T16:08:31Z</time>
      </trkpt>
      <trkpt lat="50.66392" lon="3.75014">
        <ele>55.41</ele>
        <time>2016-07-18T16:08:49Z</time>
      </trkpt>
      <trkpt lat="50.66392" lon="3.75015">
        <ele>54.93</ele>
        <time>2016-07-18T16:09:08Z</time>
      </trkpt>
      <trkpt lat="50.66391" lon="3.75015">
        <ele>54.93</ele>
        <time>2016-07-18T16:09:43Z</time>
      </trkpt>
      <trkpt lat="50.6639" lon="3.75015">
        <ele>56.37</ele>
        <time>2016-07-18T16:10:02Z</time>
      </trkpt>
      <trkpt lat="50.66392" lon="3.75017">
        <ele>55.41</ele>
        <time>2016-07-18T16:10:29Z</time>
      </trkpt>
      <trkpt lat="50.66403" lon="3.75006">
        <ele>55.89</ele>
        <time>2016-07-18T16:10:48Z</time>
      </trkpt>
      <trkpt lat="50.66422" lon="3.74987">
        <ele>53.97</ele>
        <time>2016-07-18T16:11:11Z</time>
      </trkpt>
      <trkpt lat="50.6645" lon="3.74959">
        <ele>53.01</ele>
        <time>2016-07-18T16:11:37Z</time>
      </trkpt>
      <trkpt lat="50.66471" lon="3.74941">
        <ele>52.05</ele>
        <time>2016-07-18T16:11:59Z</time>
      </trkpt>
      <trkpt lat="50.66475" lon="3.74934">
        <ele>52.05</ele>
        <time>2016-07-18T16:12:06Z</time>
      </trkpt>
      <trkpt lat="50.66498" lon="3.74911">
        <ele>52.05</ele>
        <time>2016-07-18T16:12:28Z</time>
      </trkpt>
      <trkpt lat="50.66525" lon="3.74883">
        <ele>51.57</ele>
        <time>2016-07-18T16:12:54Z</time>
      </trkpt>
      <trkpt lat="50.66546" lon="3.74863">
        <ele>51.57</ele>
        <time>2016-07-18T16:13:19Z</time>
      </trkpt>
      <trkpt lat="50.6657" lon="3.74845">
        <ele>51.57</ele>
        <time>2016-07-18T16:13:41Z</time>
      </trkpt>
      <trkpt lat="50.66602" lon="3.7483">
        <ele>51.57</ele>
        <time>2016-07-18T16:14:08Z</time>
      </trkpt>
      <trkpt lat="50.66626" lon="3.74825">
        <ele>53.01</ele>
        <time>2016-07-18T16:14:27Z</time>
      </trkpt>
      <trkpt lat="50.66657" lon="3.74819">
        <ele>53.97</ele>
        <time>2016-07-18T16:14:52Z</time>
      </trkpt>
      <trkpt lat="50.66684" lon="3.74808">
        <ele>54.93</ele>
        <time>2016-07-18T16:15:15Z</time>
      </trkpt>
      <trkpt lat="50.66707" lon="3.74791">
        <ele>55.89</ele>
        <time>2016-07-18T16:15:35Z</time>
      </trkpt>
      <trkpt lat="50.6673" lon="3.74765">
        <ele>56.37</ele>
        <time>2016-07-18T16:15:59Z</time>
      </trkpt>
      <trkpt lat="50.66749" lon="3.74729">
        <ele>57.82</ele>
        <time>2016-07-18T16:16:25Z</time>
      </trkpt>
      <trkpt lat="50.66772" lon="3.74696">
        <ele>59.26</ele>
        <time>2016-07-18T16:16:50Z</time>
      </trkpt>
      <trkpt lat="50.66798" lon="3.74673">
        <ele>60.22</ele>
        <time>2016-07-18T16:17:12Z</time>
      </trkpt>
      <trkpt lat="50.66819" lon="3.74644">
        <ele>60.7</ele>
        <time>2016-07-18T16:17:35Z</time>
      </trkpt>
      <trkpt lat="50.66846" lon="3.74616">
        <ele>61.66</ele>
        <time>2016-07-18T16:18:00Z</time>
      </trkpt>
      <trkpt lat="50.6687" lon="3.74588">
        <ele>63.1</ele>
        <time>2016-07-18T16:18:26Z</time>
      </trkpt>
      <trkpt lat="50.66893" lon="3.74559">
        <ele>64.55</ele>
        <time>2016-07-18T16:18:52Z</time>
      </trkpt>
      <trkpt lat="50.66918" lon="3.74532">
        <ele>65.03</ele>
        <time>2016-07-18T16:19:16Z</time>
      </trkpt>
      <trkpt lat="50.6692" lon="3.7453">
        <ele>65.51</ele>
        <time>2016-07-18T16:19:18Z</time>
      </trkpt>
      <trkpt lat="50.66928" lon="3.74538">
        <ele>65.51</ele>
        <time>2016-07-18T16:19:27Z</time>
      </trkpt>
      <trkpt lat="50.66943" lon="3.74578">
        <ele>65.99</ele>
        <time>2016-07-18T16:19:52Z</time>
      </trkpt>
      <trkpt lat="50.66964" lon="3.74617">
        <ele>66.95</ele>
        <time>2016-07-18T16:20:21Z</time>
      </trkpt>
      <trkpt lat="50.66965" lon="3.74632">
        <ele>66.95</ele>
        <time>2016-07-18T16:20:29Z</time>
      </trkpt>
      <trkpt lat="50.66962" lon="3.7465">
        <ele>66.95</ele>
        <time>2016-07-18T16:20:46Z</time>
      </trkpt>
      <trkpt lat="50.66961" lon="3.74653">
        <ele>66.95</ele>
        <time>2016-07-18T16:21:02Z</time>
      </trkpt>
      <trkpt lat="50.66961" lon="3.74648">
        <ele>65.99</ele>
        <time>2016-07-18T16:21:29Z</time>
      </trkpt>
      <trkpt lat="50.6696" lon="3.74647">
        <ele>65.99</ele>
        <time>2016-07-18T16:21:46Z</time>
      </trkpt>
      <trkpt lat="50.66962" lon="3.74647">
        <ele>65.99</ele>
        <time>2016-07-18T16:22:02Z</time>
      </trkpt>
      <trkpt lat="50.66959" lon="3.74664">
        <ele>66.47</ele>
        <time>2016-07-18T16:22:26Z</time>
      </trkpt>
      <trkpt lat="50.66948" lon="3.74705">
        <ele>65.99</ele>
        <time>2016-07-18T16:22:50Z</time>
      </trkpt>
      <trkpt lat="50.66933" lon="3.74759">
        <ele>65.99</ele>
        <time>2016-07-18T16:23:17Z</time>
      </trkpt>
      <trkpt lat="50.66917" lon="3.74807">
        <ele>65.99</ele>
        <time>2016-07-18T16:23:44Z</time>
      </trkpt>
      <trkpt lat="50.66901" lon="3.7484">
        <ele>65.51</ele>
        <time>2016-07-18T16:24:03Z</time>
      </trkpt>
      <trkpt lat="50.66888" lon="3.74867">
        <ele>65.03</ele>
        <time>2016-07-18T16:24:22Z</time>
      </trkpt>
      <trkpt lat="50.66875" lon="3.74905">
        <ele>64.07</ele>
        <time>2016-07-18T16:24:43Z</time>
      </trkpt>
      <trkpt lat="50.66867" lon="3.74934">
        <ele>64.07</ele>
        <time>2016-07-18T16:24:59Z</time>
      </trkpt>
      <trkpt lat="50.6685" lon="3.74976">
        <ele>63.58</ele>
        <time>2016-07-18T16:25:24Z</time>
      </trkpt>
      <trkpt lat="50.66842" lon="3.74997">
        <ele>63.58</ele>
        <time>2016-07-18T16:25:42Z</time>
      </trkpt>
      <trkpt lat="50.66839" lon="3.75003">
        <ele>65.03</ele>
        <time>2016-07-18T16:25:46Z</time>
      </trkpt>
      <trkpt lat="50.66825" lon="3.7504">
        <ele>65.03</ele>
        <time>2016-07-18T16:26:09Z</time>
      </trkpt>
      <trkpt lat="50.66822" lon="3.75046">
        <ele>63.58</ele>
        <time>2016-07-18T16:26:13Z</time>
      </trkpt>
      <trkpt lat="50.66819" lon="3.75066">
        <ele>63.58</ele>
        <time>2016-07-18T16:26:24Z</time>
      </trkpt>
      <trkpt lat="50.66831" lon="3.75106">
        <ele>63.58</ele>
        <time>2016-07-18T16:26:45Z</time>
      </trkpt>
      <trkpt lat="50.66832" lon="3.7511">
        <ele>65.03</ele>
        <time>2016-07-18T16:26:47Z</time>
      </trkpt>
      <trkpt lat="50.66846" lon="3.75157">
        <ele>65.03</ele>
        <time>2016-07-18T16:27:13Z</time>
      </trkpt>
      <trkpt lat="50.66856" lon="3.75205">
        <ele>65.03</ele>
        <time>2016-07-18T16:27:37Z</time>
      </trkpt>
      <trkpt lat="50.66857" lon="3.75213">
        <ele>63.58</ele>
        <time>2016-07-18T16:27:41Z</time>
      </trkpt>
      <trkpt lat="50.66865" lon="3.75269">
        <ele>62.14</ele>
        <time>2016-07-18T16:28:09Z</time>
      </trkpt>
      <trkpt lat="50.66872" lon="3.75317">
        <ele>61.18</ele>
        <time>2016-07-18T16:28:33Z</time>
      </trkpt>
      <trkpt lat="50.66877" lon="3.75365">
        <ele>60.22</ele>
        <time>2016-07-18T16:28:57Z</time>
      </trkpt>
      <trkpt lat="50.66878" lon="3.75417">
        <ele>58.78</ele>
        <time>2016-07-18T16:29:23Z</time>
      </trkpt>
      <trkpt lat="50.66881" lon="3.75463">
        <ele>57.82</ele>
        <time>2016-07-18T16:29:46Z</time>
      </trkpt>
      <trkpt lat="50.66881" lon="3.75508">
        <ele>58.3</ele>
        <time>2016-07-18T16:30:10Z</time>
      </trkpt>
      <trkpt lat="50.6687" lon="3.75552">
        <ele>59.26</ele>
        <time>2016-07-18T16:30:33Z</time>
      </trkpt>
      <trkpt lat="50.66853" lon="3.756">
        <ele>59.26</ele>
        <time>2016-07-18T16:31:00Z</time>
      </trkpt>
      <trkpt lat="50.66837" lon="3.75639">
        <ele>61.18</ele>
        <time>2016-07-18T16:31:25Z</time>
      </trkpt>
      <trkpt lat="50.66822" lon="3.75683">
        <ele>63.1</ele>
        <time>2016-07-18T16:31:50Z</time>
      </trkpt>
      <trkpt lat="50.66808" lon="3.7572">
        <ele>64.55</ele>
        <time>2016-07-18T16:32:13Z</time>
      </trkpt>
      <trkpt lat="50.66793" lon="3.7575">
        <ele>65.99</ele>
        <time>2016-07-18T16:32:35Z</time>
      </trkpt>
      <trkpt lat="50.6678" lon="3.7578">
        <ele>67.91</ele>
        <time>2016-07-18T16:32:55Z</time>
      </trkpt>
      <trkpt lat="50.66761" lon="3.75809">
        <ele>69.83</ele>
        <time>2016-07-18T16:33:17Z</time>
      </trkpt>
      <trkpt lat="50.66744" lon="3.75835">
        <ele>70.31</ele>
        <time>2016-07-18T16:33:37Z</time>
      </trkpt>
      <trkpt lat="50.66729" lon="3.75865">
        <ele>72.72</ele>
        <time>2016-07-18T16:33:57Z</time>
      </trkpt>
      <trkpt lat="50.66715" lon="3.75895">
        <ele>73.68</ele>
        <time>2016-07-18T16:34:18Z</time>
      </trkpt>
      <trkpt lat="50.66695" lon="3.75934">
        <ele>74.16</ele>
        <time>2016-07-18T16:34:45Z</time>
      </trkpt>
      <trkpt lat="50.6668" lon="3.75969">
        <ele>74.16</ele>
        <time>2016-07-18T16:35:09Z</time>
      </trkpt>
      <trkpt lat="50.66666" lon="3.75998">
        <ele>73.2</ele>
        <time>2016-07-18T16:35:28Z</time>
      </trkpt>
      <trkpt lat="50.66646" lon="3.7604">
        <ele>72.72</ele>
        <time>2016-07-18T16:35:55Z</time>
      </trkpt>
      <trkpt lat="50.66632" lon="3.76069">
        <ele>72.72</ele>
        <time>2016-07-18T16:36:16Z</time>
      </trkpt>
      <trkpt lat="50.66621" lon="3.76097">
        <ele>72.24</ele>
        <time>2016-07-18T16:36:37Z</time>
      </trkpt>
      <trkpt lat="50.66606" lon="3.76132">
        <ele>71.76</ele>
        <time>2016-07-18T16:36:59Z</time>
      </trkpt>
      <trkpt lat="50.66595" lon="3.76163">
        <ele>71.27</ele>
        <time>2016-07-18T16:37:16Z</time>
      </trkpt>
      <trkpt lat="50.66594" lon="3.76176">
        <ele>71.27</ele>
        <time>2016-07-18T16:37:36Z</time>
      </trkpt>
      <trkpt lat="50.66593" lon="3.76174">
        <ele>71.27</ele>
        <time>2016-07-18T16:38:03Z</time>
      </trkpt>
      <trkpt lat="50.66592" lon="3.76173">
        <ele>71.27</ele>
        <time>2016-07-18T16:38:29Z</time>
      </trkpt>
      <trkpt lat="50.66592" lon="3.76172">
        <ele>72.24</ele>
        <time>2016-07-18T16:38:56Z</time>
      </trkpt>
      <trkpt lat="50.666" lon="3.76163">
        <ele>72.24</ele>
        <time>2016-07-18T16:39:16Z</time>
      </trkpt>
      <trkpt lat="50.66614" lon="3.76148">
        <ele>72.24</ele>
        <time>2016-07-18T16:39:31Z</time>
      </trkpt>
      <trkpt lat="50.66639" lon="3.76123">
        <ele>70.79</ele>
        <time>2016-07-18T16:39:53Z</time>
      </trkpt>
      <trkpt lat="50.66659" lon="3.7611">
        <ele>70.79</ele>
        <time>2016-07-18T16:40:09Z</time>
      </trkpt>
      <trkpt lat="50.66674" lon="3.76101">
        <ele>70.79</ele>
        <time>2016-07-18T16:40:26Z</time>
      </trkpt>
      <trkpt lat="50.66708" lon="3.7609">
        <ele>69.35</ele>
        <time>2016-07-18T16:40:52Z</time>
      </trkpt>
      <trkpt lat="50.66735" lon="3.76081">
        <ele>68.39</ele>
        <time>2016-07-18T16:41:18Z</time>
      </trkpt>
      <trkpt lat="50.66761" lon="3.76083">
        <ele>67.43</ele>
        <time>2016-07-18T16:41:40Z</time>
      </trkpt>
      <trkpt lat="50.66797" lon="3.76085">
        <ele>66.47</ele>
        <time>2016-07-18T16:42:06Z</time>
      </trkpt>
      <trkpt lat="50.66824" lon="3.7609">
        <ele>64.55</ele>
        <time>2016-07-18T16:42:30Z</time>
      </trkpt>
      <trkpt lat="50.66855" lon="3.76098">
        <ele>64.07</ele>
        <time>2016-07-18T16:42:54Z</time>
      </trkpt>
      <trkpt lat="50.66885" lon="3.76103">
        <ele>62.62</ele>
        <time>2016-07-18T16:43:18Z</time>
      </trkpt>
      <trkpt lat="50.66918" lon="3.76118">
        <ele>61.66</ele>
        <time>2016-07-18T16:43:43Z</time>
      </trkpt>
      <trkpt lat="50.66946" lon="3.76145">
        <ele>59.26</ele>
        <time>2016-07-18T16:44:08Z</time>
      </trkpt>
      <trkpt lat="50.6697" lon="3.76176">
        <ele>58.78</ele>
        <time>2016-07-18T16:44:33Z</time>
      </trkpt>
      <trkpt lat="50.66997" lon="3.76206">
        <ele>57.82</ele>
        <time>2016-07-18T16:44:58Z</time>
      </trkpt>
      <trkpt lat="50.67025" lon="3.76238">
        <ele>55.89</ele>
        <time>2016-07-18T16:45:23Z</time>
      </trkpt>
      <trkpt lat="50.67029" lon="3.76242">
        <ele>57.34</ele>
        <time>2016-07-18T16:45:26Z</time>
      </trkpt>
      <trkpt lat="50.67047" lon="3.76263">
        <ele>55.89</ele>
        <time>2016-07-18T16:45:44Z</time>
      </trkpt>
      <trkpt lat="50.67073" lon="3.76296">
        <ele>55.41</ele>
        <time>2016-07-18T16:46:11Z</time>
      </trkpt>
      <trkpt lat="50.67099" lon="3.76331">
        <ele>53.97</ele>
        <time>2016-07-18T16:46:37Z</time>
      </trkpt>
      <trkpt lat="50.67108" lon="3.76341">
        <ele>53.49</ele>
        <time>2016-07-18T16:46:47Z</time>
      </trkpt>
      <trkpt lat="50.67133" lon="3.76372">
        <ele>52.05</ele>
        <time>2016-07-18T16:47:11Z</time>
      </trkpt>
      <trkpt lat="50.67149" lon="3.76385">
        <ele>51.57</ele>
        <time>2016-07-18T16:47:31Z</time>
      </trkpt>
      <trkpt lat="50.67178" lon="3.76414">
        <ele>50.61</ele>
        <time>2016-07-18T16:47:57Z</time>
      </trkpt>
      <trkpt lat="50.67202" lon="3.76444">
        <ele>49.65</ele>
        <time>2016-07-18T16:48:22Z</time>
      </trkpt>
      <trkpt lat="50.67229" lon="3.76466">
        <ele>48.68</ele>
        <time>2016-07-18T16:48:46Z</time>
      </trkpt>
      <trkpt lat="50.67258" lon="3.76483">
        <ele>46.76</ele>
        <time>2016-07-18T16:49:09Z</time>
      </trkpt>
      <trkpt lat="50.67294" lon="3.76495">
        <ele>45.32</ele>
        <time>2016-07-18T16:49:36Z</time>
      </trkpt>
      <trkpt lat="50.67327" lon="3.76513">
        <ele>44.36</ele>
        <time>2016-07-18T16:50:03Z</time>
      </trkpt>
      <trkpt lat="50.67356" lon="3.76524">
        <ele>42.92</ele>
        <time>2016-07-18T16:50:28Z</time>
      </trkpt>
      <trkpt lat="50.67393" lon="3.76541">
        <ele>41.95</ele>
        <time>2016-07-18T16:50:55Z</time>
      </trkpt>
      <trkpt lat="50.67421" lon="3.7657">
        <ele>41.95</ele>
        <time>2016-07-18T16:51:20Z</time>
      </trkpt>
      <trkpt lat="50.67445" lon="3.76595">
        <ele>40.99</ele>
        <time>2016-07-18T16:51:46Z</time>
      </trkpt>
      <trkpt lat="50.67445" lon="3.766">
        <ele>40.99</ele>
        <time>2016-07-18T16:52:07Z</time>
      </trkpt>
      <trkpt lat="50.67447" lon="3.76601">
        <ele>40.99</ele>
        <time>2016-07-18T16:52:34Z</time>
      </trkpt>
      <trkpt lat="50.67449" lon="3.76602">
        <ele>40.99</ele>
        <time>2016-07-18T16:53:02Z</time>
      </trkpt>
      <trkpt lat="50.67451" lon="3.76606">
        <ele>44.84</ele>
        <time>2016-07-18T16:53:19Z</time>
      </trkpt>
      <trkpt lat="50.67451" lon="3.76606">
        <ele>41.47</ele>
        <time>2016-07-18T16:53:20Z</time>
      </trkpt>
      <trkpt lat="50.67452" lon="3.76607">
        <ele>41.95</ele>
        <time>2016-07-18T16:53:45Z</time>
      </trkpt>
      <trkpt lat="50.67454" lon="3.7661">
        <ele>41.95</ele>
        <time>2016-07-18T16:53:48Z</time>
      </trkpt>
      <trkpt lat="50.67485" lon="3.76623">
        <ele>40.99</ele>
        <time>2016-07-18T16:54:13Z</time>
      </trkpt>
      <trkpt lat="50.67507" lon="3.76617">
        <ele>41.95</ele>
        <time>2016-07-18T16:54:35Z</time>
      </trkpt>
      <trkpt lat="50.6752" lon="3.76588">
        <ele>42.92</ele>
        <time>2016-07-18T16:54:56Z</time>
      </trkpt>
      <trkpt lat="50.6754" lon="3.76552">
        <ele>42.92</ele>
        <time>2016-07-18T16:55:20Z</time>
      </trkpt>
      <trkpt lat="50.67556" lon="3.76516">
        <ele>43.88</ele>
        <time>2016-07-18T16:55:42Z</time>
      </trkpt>
      <trkpt lat="50.67581" lon="3.7649">
        <ele>44.84</ele>
        <time>2016-07-18T16:56:03Z</time>
      </trkpt>
      <trkpt lat="50.67605" lon="3.76445">
        <ele>45.32</ele>
        <time>2016-07-18T16:56:30Z</time>
      </trkpt>
      <trkpt lat="50.67628" lon="3.7641">
        <ele>46.28</ele>
        <time>2016-07-18T16:56:54Z</time>
      </trkpt>
      <trkpt lat="50.67644" lon="3.76377">
        <ele>47.24</ele>
        <time>2016-07-18T16:57:16Z</time>
      </trkpt>
      <trkpt lat="50.67663" lon="3.76343">
        <ele>48.2</ele>
        <time>2016-07-18T16:57:38Z</time>
      </trkpt>
      <trkpt lat="50.67684" lon="3.7631">
        <ele>48.68</ele>
        <time>2016-07-18T16:58:02Z</time>
      </trkpt>
      <trkpt lat="50.67699" lon="3.76268">
        <ele>46.28</ele>
        <time>2016-07-18T16:58:27Z</time>
      </trkpt>
      <trkpt lat="50.67709" lon="3.76228">
        <ele>44.84</ele>
        <time>2016-07-18T16:58:49Z</time>
      </trkpt>
      <trkpt lat="50.67714" lon="3.76189">
        <ele>43.4</ele>
        <time>2016-07-18T16:59:10Z</time>
      </trkpt>
      <trkpt lat="50.67723" lon="3.76149">
        <ele>41.95</ele>
        <time>2016-07-18T16:59:32Z</time>
      </trkpt>
      <trkpt lat="50.6773" lon="3.76104">
        <ele>40.51</ele>
        <time>2016-07-18T16:59:55Z</time>
      </trkpt>
      <trkpt lat="50.67736" lon="3.76064">
        <ele>38.59</ele>
        <time>2016-07-18T17:00:17Z</time>
      </trkpt>
      <trkpt lat="50.67753" lon="3.7602">
        <ele>38.11</ele>
        <time>2016-07-18T17:00:40Z</time>
      </trkpt>
      <trkpt lat="50.67754" lon="3.76019">
        <ele>38.11</ele>
        <time>2016-07-18T17:00:41Z</time>
      </trkpt>
      <trkpt lat="50.6778" lon="3.75997">
        <ele>38.11</ele>
        <time>2016-07-18T17:01:06Z</time>
      </trkpt>
      <trkpt lat="50.67782" lon="3.75994">
        <ele>39.55</ele>
        <time>2016-07-18T17:01:09Z</time>
      </trkpt>
      <trkpt lat="50.6779" lon="3.75975">
        <ele>39.55</ele>
        <time>2016-07-18T17:01:22Z</time>
      </trkpt>
      <trkpt lat="50.678" lon="3.75956">
        <ele>40.03</ele>
        <time>2016-07-18T17:01:34Z</time>
      </trkpt>
      <trkpt lat="50.67806" lon="3.75944">
        <ele>40.03</ele>
        <time>2016-07-18T17:01:40Z</time>
      </trkpt>
      <trkpt lat="50.67814" lon="3.75929">
        <ele>40.03</ele>
        <time>2016-07-18T17:01:51Z</time>
      </trkpt>
      <trkpt lat="50.6782" lon="3.75911">
        <ele>40.51</ele>
        <time>2016-07-18T17:02:04Z</time>
      </trkpt>
      <trkpt lat="50.67827" lon="3.75894">
        <ele>40.51</ele>
        <time>2016-07-18T17:02:18Z</time>
      </trkpt>
      <trkpt lat="50.67832" lon="3.75886">
        <ele>41.47</ele>
        <time>2016-07-18T17:02:31Z</time>
      </trkpt>
      <trkpt lat="50.67833" lon="3.75884">
        <ele>41.95</ele>
        <time>2016-07-18T17:02:58Z</time>
      </trkpt>
      <trkpt lat="50.67836" lon="3.75879">
        <ele>41.95</ele>
        <time>2016-07-18T17:03:11Z</time>
      </trkpt>
    </trkseg>
  </trk>
</gpx>